sensor_id;sensor_type;location;lat;lon;timestamp;P1;durP1;ratioP1;P2;durP2;ratioP2
42110;SDS011;27766;52.174;5.456;2022-08-20T00:01:34;11.60;;;9.60;;
42110;SDS011;27766;52.174;5.456;2022-08-20T00:04:04;11.68;;;10.43;;
42110;SDS011;27766;52.174;5.456;2022-08-20T00:06:32;15.48;;;10.98;;
42110;SDS011;27766;52.174;5.456;2022-08-20T00:09:00;11.63;;;10.43;;
42110;SDS011;27766;52.174;5.456;2022-08-20T00:11:28;16.83;;;10.98;;
42110;SDS011;27766;52.174;5.456;2022-08-20T00:14:01;14.45;;;10.27;;
42110;SDS011;27766;52.174;5.456;2022-08-20T00:16:31;12.15;;;10.18;;
42110;SDS011;27766;52.174;5.456;2022-08-20T00:19:03;12.88;;;9.88;;
42110;SDS011;27766;52.174;5.456;2022-08-20T00:21:33;13.38;;;9.50;;
42110;SDS011;27766;52.174;5.456;2022-08-20T00:24:02;12.05;;;10.05;;
42110;SDS011;27766;52.174;5.456;2022-08-20T00:26:30;10.50;;;8.80;;
42110;SDS011;27766;52.174;5.456;2022-08-20T00:29:03;15.00;;;10.02;;
42110;SDS011;27766;52.174;5.456;2022-08-20T00:31:30;14.57;;;9.93;;
42110;SDS011;27766;52.174;5.456;2022-08-20T00:33:58;13.80;;;9.85;;
42110;SDS011;27766;52.174;5.456;2022-08-20T00:36:29;12.52;;;9.70;;
42110;SDS011;27766;52.174;5.456;2022-08-20T00:38:59;14.05;;;9.65;;
42110;SDS011;27766;52.174;5.456;2022-08-20T00:41:27;13.52;;;10.55;;
42110;SDS011;27766;52.174;5.456;2022-08-20T00:44:06;15.35;;;10.75;;
42110;SDS011;27766;52.174;5.456;2022-08-20T00:46:42;12.15;;;9.70;;
42110;SDS011;27766;52.174;5.456;2022-08-20T00:49:17;14.38;;;9.93;;
42110;SDS011;27766;52.174;5.456;2022-08-20T00:51:53;16.20;;;10.80;;
42110;SDS011;27766;52.174;5.456;2022-08-20T00:54:41;16.05;;;9.90;;
42110;SDS011;27766;52.174;5.456;2022-08-20T00:57:34;14.13;;;10.48;;
42110;SDS011;27766;52.174;5.456;2022-08-20T01:00:35;13.75;;;9.95;;
42110;SDS011;27766;52.174;5.456;2022-08-20T01:03:09;16.30;;;10.65;;
42110;SDS011;27766;52.174;5.456;2022-08-20T01:05:39;12.93;;;10.20;;
42110;SDS011;27766;52.174;5.456;2022-08-20T01:08:10;15.48;;;11.45;;
42110;SDS011;27766;52.174;5.456;2022-08-20T01:10:40;15.48;;;10.57;;
42110;SDS011;27766;52.174;5.456;2022-08-20T01:13:16;14.68;;;9.88;;
42110;SDS011;27766;52.174;5.456;2022-08-20T01:15:47;15.82;;;10.25;;
42110;SDS011;27766;52.174;5.456;2022-08-20T01:18:19;12.98;;;10.38;;
42110;SDS011;27766;52.174;5.456;2022-08-20T01:23:29;14.70;;;9.95;;
42110;SDS011;27766;52.174;5.456;2022-08-20T01:26:04;20.25;;;10.73;;
42110;SDS011;27766;52.174;5.456;2022-08-20T01:31:13;19.77;;;13.02;;
42110;SDS011;27766;52.174;5.456;2022-08-20T01:33:45;14.05;;;10.63;;
42110;SDS011;27766;52.174;5.456;2022-08-20T01:36:14;12.02;;;10.05;;
42110;SDS011;27766;52.174;5.456;2022-08-20T01:38:44;18.33;;;11.52;;
42110;SDS011;27766;52.174;5.456;2022-08-20T01:43:55;13.48;;;11.00;;
42110;SDS011;27766;52.174;5.456;2022-08-20T01:46:26;12.27;;;10.48;;
42110;SDS011;27766;52.174;5.456;2022-08-20T01:49:09;12.32;;;10.18;;
42110;SDS011;27766;52.174;5.456;2022-08-20T01:51:49;14.82;;;11.30;;
42110;SDS011;27766;52.174;5.456;2022-08-20T01:54:19;12.57;;;10.50;;
42110;SDS011;27766;52.174;5.456;2022-08-20T01:56:59;13.02;;;9.43;;
42110;SDS011;27766;52.174;5.456;2022-08-20T01:59:30;15.02;;;10.27;;
42110;SDS011;27766;52.174;5.456;2022-08-20T02:01:58;12.88;;;10.38;;
42110;SDS011;27766;52.174;5.456;2022-08-20T02:04:26;14.93;;;10.25;;
42110;SDS011;27766;52.174;5.456;2022-08-20T02:06:55;19.60;;;10.85;;
42110;SDS011;27766;52.174;5.456;2022-08-20T02:09:25;12.70;;;10.50;;
42110;SDS011;27766;52.174;5.456;2022-08-20T02:12:02;13.63;;;10.63;;
42110;SDS011;27766;52.174;5.456;2022-08-20T02:14:31;16.17;;;10.75;;
42110;SDS011;27766;52.174;5.456;2022-08-20T02:16:59;10.75;;;8.68;;
42110;SDS011;27766;52.174;5.456;2022-08-20T02:19:34;16.40;;;9.30;;
42110;SDS011;27766;52.174;5.456;2022-08-20T02:25:16;13.35;;;8.15;;
42110;SDS011;27766;52.174;5.456;2022-08-20T02:27:49;11.88;;;7.00;;
42110;SDS011;27766;52.174;5.456;2022-08-20T02:30:19;12.85;;;8.00;;
42110;SDS011;27766;52.174;5.456;2022-08-20T02:32:55;14.52;;;9.13;;
42110;SDS011;27766;52.174;5.456;2022-08-20T02:35:24;9.40;;;7.80;;
42110;SDS011;27766;52.174;5.456;2022-08-20T02:37:55;12.45;;;7.50;;
42110;SDS011;27766;52.174;5.456;2022-08-20T02:40:23;12.10;;;7.93;;
42110;SDS011;27766;52.174;5.456;2022-08-20T02:42:57;10.35;;;7.00;;
42110;SDS011;27766;52.174;5.456;2022-08-20T02:45:26;7.40;;;6.68;;
42110;SDS011;27766;52.174;5.456;2022-08-20T02:47:57;12.38;;;7.15;;
42110;SDS011;27766;52.174;5.456;2022-08-20T02:50:25;10.18;;;7.28;;
42110;SDS011;27766;52.174;5.456;2022-08-20T02:52:53;11.57;;;8.30;;
42110;SDS011;27766;52.174;5.456;2022-08-20T02:55:21;9.38;;;7.47;;
42110;SDS011;27766;52.174;5.456;2022-08-20T02:57:57;11.57;;;7.28;;
42110;SDS011;27766;52.174;5.456;2022-08-20T03:00:27;11.68;;;7.90;;
42110;SDS011;27766;52.174;5.456;2022-08-20T03:03:07;9.68;;;8.20;;
42110;SDS011;27766;52.174;5.456;2022-08-20T03:05:36;10.73;;;7.57;;
42110;SDS011;27766;52.174;5.456;2022-08-20T03:08:06;9.60;;;7.63;;
42110;SDS011;27766;52.174;5.456;2022-08-20T03:10:35;14.93;;;7.80;;
42110;SDS011;27766;52.174;5.456;2022-08-20T03:13:04;8.55;;;7.70;;
42110;SDS011;27766;52.174;5.456;2022-08-20T03:15:33;9.65;;;7.97;;
42110;SDS011;27766;52.174;5.456;2022-08-20T03:18:00;11.30;;;7.88;;
42110;SDS011;27766;52.174;5.456;2022-08-20T03:20:27;10.43;;;8.77;;
42110;SDS011;27766;52.174;5.456;2022-08-20T03:22:58;13.90;;;8.88;;
42110;SDS011;27766;52.174;5.456;2022-08-20T03:25:25;14.80;;;8.55;;
42110;SDS011;27766;52.174;5.456;2022-08-20T03:27:53;9.30;;;8.32;;
42110;SDS011;27766;52.174;5.456;2022-08-20T03:30:24;14.48;;;8.45;;
42110;SDS011;27766;52.174;5.456;2022-08-20T03:32:53;12.63;;;9.18;;
42110;SDS011;27766;52.174;5.456;2022-08-20T03:35:27;30.00;;;9.52;;
42110;SDS011;27766;52.174;5.456;2022-08-20T03:37:57;11.10;;;8.32;;
42110;SDS011;27766;52.174;5.456;2022-08-20T03:40:31;12.68;;;8.07;;
42110;SDS011;27766;52.174;5.456;2022-08-20T03:43:00;14.63;;;8.55;;
42110;SDS011;27766;52.174;5.456;2022-08-20T03:45:27;12.32;;;8.55;;
42110;SDS011;27766;52.174;5.456;2022-08-20T03:47:56;12.45;;;9.02;;
42110;SDS011;27766;52.174;5.456;2022-08-20T03:50:25;10.32;;;8.98;;
42110;SDS011;27766;52.174;5.456;2022-08-20T03:52:57;12.40;;;8.43;;
42110;SDS011;27766;52.174;5.456;2022-08-20T03:55:27;11.75;;;8.70;;
42110;SDS011;27766;52.174;5.456;2022-08-20T03:57:59;10.30;;;8.68;;
42110;SDS011;27766;52.174;5.456;2022-08-20T04:00:33;10.77;;;9.02;;
42110;SDS011;27766;52.174;5.456;2022-08-20T04:03:03;14.70;;;9.80;;
42110;SDS011;27766;52.174;5.456;2022-08-20T04:05:35;14.73;;;8.57;;
42110;SDS011;27766;52.174;5.456;2022-08-20T04:08:10;11.50;;;8.63;;
42110;SDS011;27766;52.174;5.456;2022-08-20T04:10:42;12.63;;;9.50;;
42110;SDS011;27766;52.174;5.456;2022-08-20T04:13:12;12.00;;;9.05;;
42110;SDS011;27766;52.174;5.456;2022-08-20T04:15:42;14.20;;;8.93;;
42110;SDS011;27766;52.174;5.456;2022-08-20T04:18:12;9.85;;;8.38;;
42110;SDS011;27766;52.174;5.456;2022-08-20T04:20:41;12.40;;;8.73;;
42110;SDS011;27766;52.174;5.456;2022-08-20T04:23:09;16.15;;;9.75;;
42110;SDS011;27766;52.174;5.456;2022-08-20T04:25:37;11.55;;;8.77;;
42110;SDS011;27766;52.174;5.456;2022-08-20T04:28:14;11.45;;;8.93;;
42110;SDS011;27766;52.174;5.456;2022-08-20T04:30:56;14.95;;;8.80;;
42110;SDS011;27766;52.174;5.456;2022-08-20T04:33:26;14.13;;;8.63;;
42110;SDS011;27766;52.174;5.456;2022-08-20T04:36:02;9.50;;;8.50;;
42110;SDS011;27766;52.174;5.456;2022-08-20T04:38:31;12.02;;;8.77;;
42110;SDS011;27766;52.174;5.456;2022-08-20T04:41:17;10.85;;;8.00;;
42110;SDS011;27766;52.174;5.456;2022-08-20T04:43:50;13.52;;;8.95;;
42110;SDS011;27766;52.174;5.456;2022-08-20T04:46:20;10.68;;;8.40;;
42110;SDS011;27766;52.174;5.456;2022-08-20T04:48:52;14.63;;;10.02;;
42110;SDS011;27766;52.174;5.456;2022-08-20T04:51:20;16.60;;;10.23;;
42110;SDS011;27766;52.174;5.456;2022-08-20T04:53:49;14.48;;;9.68;;
42110;SDS011;27766;52.174;5.456;2022-08-20T04:56:20;15.45;;;9.35;;
42110;SDS011;27766;52.174;5.456;2022-08-20T04:58:54;10.93;;;8.93;;
42110;SDS011;27766;52.174;5.456;2022-08-20T05:01:27;16.58;;;10.13;;
42110;SDS011;27766;52.174;5.456;2022-08-20T05:03:56;16.33;;;9.70;;
42110;SDS011;27766;52.174;5.456;2022-08-20T05:06:27;23.50;;;9.00;;
42110;SDS011;27766;52.174;5.456;2022-08-20T05:08:57;12.05;;;9.00;;
42110;SDS011;27766;52.174;5.456;2022-08-20T05:11:26;10.38;;;8.60;;
42110;SDS011;27766;52.174;5.456;2022-08-20T05:14:03;15.88;;;9.43;;
42110;SDS011;27766;52.174;5.456;2022-08-20T05:16:31;11.63;;;9.52;;
42110;SDS011;27766;52.174;5.456;2022-08-20T05:19:04;13.15;;;9.82;;
42110;SDS011;27766;52.174;5.456;2022-08-20T05:21:34;12.13;;;9.25;;
42110;SDS011;27766;52.174;5.456;2022-08-20T05:24:02;17.17;;;9.60;;
42110;SDS011;27766;52.174;5.456;2022-08-20T05:26:29;13.55;;;9.73;;
42110;SDS011;27766;52.174;5.456;2022-08-20T05:28:56;10.30;;;8.85;;
42110;SDS011;27766;52.174;5.456;2022-08-20T05:31:26;12.90;;;8.93;;
42110;SDS011;27766;52.174;5.456;2022-08-20T05:34:00;13.50;;;9.88;;
42110;SDS011;27766;52.174;5.456;2022-08-20T05:36:29;11.63;;;8.88;;
42110;SDS011;27766;52.174;5.456;2022-08-20T05:38:56;13.85;;;8.57;;
42110;SDS011;27766;52.174;5.456;2022-08-20T05:41:23;13.38;;;9.10;;
42110;SDS011;27766;52.174;5.456;2022-08-20T05:43:59;10.68;;;9.10;;
42110;SDS011;27766;52.174;5.456;2022-08-20T05:46:28;13.52;;;9.07;;
42110;SDS011;27766;52.174;5.456;2022-08-20T05:48:58;16.73;;;9.73;;
42110;SDS011;27766;52.174;5.456;2022-08-20T05:51:27;12.13;;;8.57;;
42110;SDS011;27766;52.174;5.456;2022-08-20T05:53:56;14.00;;;9.32;;
42110;SDS011;27766;52.174;5.456;2022-08-20T05:56:26;14.18;;;9.18;;
42110;SDS011;27766;52.174;5.456;2022-08-20T05:58:57;23.42;;;10.10;;
42110;SDS011;27766;52.174;5.456;2022-08-20T06:01:32;14.57;;;9.98;;
42110;SDS011;27766;52.174;5.456;2022-08-20T06:04:01;15.75;;;10.48;;
42110;SDS011;27766;52.174;5.456;2022-08-20T06:06:57;12.63;;;9.82;;
42110;SDS011;27766;52.174;5.456;2022-08-20T06:09:29;13.25;;;10.18;;
42110;SDS011;27766;52.174;5.456;2022-08-20T06:12:00;11.95;;;9.02;;
42110;SDS011;27766;52.174;5.456;2022-08-20T06:14:29;17.38;;;9.38;;
42110;SDS011;27766;52.174;5.456;2022-08-20T06:17:11;12.80;;;9.85;;
42110;SDS011;27766;52.174;5.456;2022-08-20T06:19:41;16.20;;;9.27;;
42110;SDS011;27766;52.174;5.456;2022-08-20T06:22:13;14.55;;;9.10;;
42110;SDS011;27766;52.174;5.456;2022-08-20T06:24:48;10.82;;;7.38;;
42110;SDS011;27766;52.174;5.456;2022-08-20T06:27:16;10.05;;;7.95;;
42110;SDS011;27766;52.174;5.456;2022-08-20T06:29:44;11.68;;;7.47;;
42110;SDS011;27766;52.174;5.456;2022-08-20T06:32:11;9.13;;;7.03;;
42110;SDS011;27766;52.174;5.456;2022-08-20T06:34:40;13.80;;;6.80;;
42110;SDS011;27766;52.174;5.456;2022-08-20T06:37:18;15.73;;;6.63;;
42110;SDS011;27766;52.174;5.456;2022-08-20T06:42:32;8.02;;;6.18;;
42110;SDS011;27766;52.174;5.456;2022-08-20T06:44:59;11.02;;;5.47;;
42110;SDS011;27766;52.174;5.456;2022-08-20T06:47:30;8.25;;;4.65;;
42110;SDS011;27766;52.174;5.456;2022-08-20T06:49:58;7.47;;;4.95;;
42110;SDS011;27766;52.174;5.456;2022-08-20T06:52:26;14.50;;;5.25;;
42110;SDS011;27766;52.174;5.456;2022-08-20T06:55:13;7.65;;;4.45;;
42110;SDS011;27766;52.174;5.456;2022-08-20T06:57:41;6.35;;;3.53;;
42110;SDS011;27766;52.174;5.456;2022-08-20T07:00:10;4.40;;;3.10;;
42110;SDS011;27766;52.174;5.456;2022-08-20T07:02:41;11.48;;;3.63;;
42110;SDS011;27766;52.174;5.456;2022-08-20T07:05:08;11.77;;;3.90;;
42110;SDS011;27766;52.174;5.456;2022-08-20T07:07:36;17.38;;;3.55;;
42110;SDS011;27766;52.174;5.456;2022-08-20T07:10:07;9.05;;;3.55;;
42110;SDS011;27766;52.174;5.456;2022-08-20T07:12:37;7.10;;;3.30;;
42110;SDS011;27766;52.174;5.456;2022-08-20T07:15:05;8.80;;;3.03;;
42110;SDS011;27766;52.174;5.456;2022-08-20T07:17:33;6.50;;;2.42;;
42110;SDS011;27766;52.174;5.456;2022-08-20T07:20:05;6.88;;;3.00;;
42110;SDS011;27766;52.174;5.456;2022-08-20T07:22:41;9.57;;;2.75;;
42110;SDS011;27766;52.174;5.456;2022-08-20T07:25:14;8.52;;;2.42;;
42110;SDS011;27766;52.174;5.456;2022-08-20T07:27:43;3.50;;;2.15;;
42110;SDS011;27766;52.174;5.456;2022-08-20T07:30:20;7.72;;;2.55;;
42110;SDS011;27766;52.174;5.456;2022-08-20T07:33:23;5.22;;;1.85;;
42110;SDS011;27766;52.174;5.456;2022-08-20T07:35:55;3.65;;;2.22;;
42110;SDS011;27766;52.174;5.456;2022-08-20T07:38:24;5.07;;;2.03;;
42110;SDS011;27766;52.174;5.456;2022-08-20T07:40:54;5.10;;;1.48;;
42110;SDS011;27766;52.174;5.456;2022-08-20T07:43:27;5.75;;;2.00;;
42110;SDS011;27766;52.174;5.456;2022-08-20T07:45:59;3.65;;;1.60;;
42110;SDS011;27766;52.174;5.456;2022-08-20T07:48:35;5.10;;;1.52;;
42110;SDS011;27766;52.174;5.456;2022-08-20T07:51:06;3.28;;;1.60;;
42110;SDS011;27766;52.174;5.456;2022-08-20T07:53:36;6.22;;;1.48;;
42110;SDS011;27766;52.174;5.456;2022-08-20T07:56:07;2.58;;;1.45;;
42110;SDS011;27766;52.174;5.456;2022-08-20T07:58:40;3.35;;;1.20;;
42110;SDS011;27766;52.174;5.456;2022-08-20T08:01:09;5.78;;;1.25;;
42110;SDS011;27766;52.174;5.456;2022-08-20T08:03:37;6.63;;;1.25;;
42110;SDS011;27766;52.174;5.456;2022-08-20T08:06:19;4.88;;;1.30;;
42110;SDS011;27766;52.174;5.456;2022-08-20T08:09:12;4.95;;;1.40;;
42110;SDS011;27766;52.174;5.456;2022-08-20T08:11:40;4.18;;;1.42;;
42110;SDS011;27766;52.174;5.456;2022-08-20T08:14:18;7.18;;;1.60;;
42110;SDS011;27766;52.174;5.456;2022-08-20T08:16:56;4.00;;;1.23;;
42110;SDS011;27766;52.174;5.456;2022-08-20T08:19:28;4.25;;;1.38;;
42110;SDS011;27766;52.174;5.456;2022-08-20T08:22:02;9.85;;;1.40;;
42110;SDS011;27766;52.174;5.456;2022-08-20T08:24:30;9.40;;;1.52;;
42110;SDS011;27766;52.174;5.456;2022-08-20T08:26:57;4.35;;;1.35;;
42110;SDS011;27766;52.174;5.456;2022-08-20T08:29:25;3.97;;;1.50;;
42110;SDS011;27766;52.174;5.456;2022-08-20T08:31:53;8.75;;;2.03;;
42110;SDS011;27766;52.174;5.456;2022-08-20T08:34:22;5.05;;;1.40;;
42110;SDS011;27766;52.174;5.456;2022-08-20T08:36:52;4.78;;;1.40;;
42110;SDS011;27766;52.174;5.456;2022-08-20T08:39:22;6.20;;;2.00;;
42110;SDS011;27766;52.174;5.456;2022-08-20T08:41:59;4.43;;;1.40;;
42110;SDS011;27766;52.174;5.456;2022-08-20T08:44:32;3.92;;;1.45;;
42110;SDS011;27766;52.174;5.456;2022-08-20T08:47:08;6.80;;;2.15;;
42110;SDS011;27766;52.174;5.456;2022-08-20T08:49:44;7.68;;;1.98;;
42110;SDS011;27766;52.174;5.456;2022-08-20T08:52:20;6.65;;;1.27;;
42110;SDS011;27766;52.174;5.456;2022-08-20T08:54:51;4.75;;;1.27;;
42110;SDS011;27766;52.174;5.456;2022-08-20T08:57:22;7.60;;;1.55;;
42110;SDS011;27766;52.174;5.456;2022-08-20T08:59:53;7.53;;;1.60;;
42110;SDS011;27766;52.174;5.456;2022-08-20T09:02:31;5.00;;;1.10;;
42110;SDS011;27766;52.174;5.456;2022-08-20T09:05:02;8.65;;;1.90;;
42110;SDS011;27766;52.174;5.456;2022-08-20T09:07:40;2.10;;;1.30;;
42110;SDS011;27766;52.174;5.456;2022-08-20T09:10:14;10.68;;;2.15;;
42110;SDS011;27766;52.174;5.456;2022-08-20T09:12:52;2.10;;;1.10;;
42110;SDS011;27766;52.174;5.456;2022-08-20T09:15:19;2.85;;;1.15;;
42110;SDS011;27766;52.174;5.456;2022-08-20T09:17:47;2.40;;;0.90;;
42110;SDS011;27766;52.174;5.456;2022-08-20T09:20:14;2.75;;;1.20;;
42110;SDS011;27766;52.174;5.456;2022-08-20T09:22:43;4.13;;;1.50;;
42110;SDS011;27766;52.174;5.456;2022-08-20T09:25:11;2.88;;;1.45;;
42110;SDS011;27766;52.174;5.456;2022-08-20T09:27:38;8.35;;;1.90;;
42110;SDS011;27766;52.174;5.456;2022-08-20T09:30:09;14.18;;;2.55;;
42110;SDS011;27766;52.174;5.456;2022-08-20T09:32:37;13.00;;;1.77;;
42110;SDS011;27766;52.174;5.456;2022-08-20T09:35:04;4.40;;;1.77;;
42110;SDS011;27766;52.174;5.456;2022-08-20T09:37:35;6.55;;;1.80;;
42110;SDS011;27766;52.174;5.456;2022-08-20T09:40:04;3.60;;;1.25;;
42110;SDS011;27766;52.174;5.456;2022-08-20T09:42:34;2.85;;;1.45;;
42110;SDS011;27766;52.174;5.456;2022-08-20T09:45:07;10.35;;;2.13;;
42110;SDS011;27766;52.174;5.456;2022-08-20T09:47:37;6.65;;;1.75;;
42110;SDS011;27766;52.174;5.456;2022-08-20T09:50:20;3.42;;;1.45;;
42110;SDS011;27766;52.174;5.456;2022-08-20T09:52:52;6.78;;;1.95;;
42110;SDS011;27766;52.174;5.456;2022-08-20T09:55:32;3.38;;;1.20;;
42110;SDS011;27766;52.174;5.456;2022-08-20T09:58:21;5.75;;;1.65;;
42110;SDS011;27766;52.174;5.456;2022-08-20T10:00:52;3.35;;;1.23;;
42110;SDS011;27766;52.174;5.456;2022-08-20T10:03:19;3.35;;;1.35;;
42110;SDS011;27766;52.174;5.456;2022-08-20T10:05:47;6.13;;;1.40;;
42110;SDS011;27766;52.174;5.456;2022-08-20T10:08:14;6.20;;;1.10;;
42110;SDS011;27766;52.174;5.456;2022-08-20T10:10:41;2.40;;;1.02;;
42110;SDS011;27766;52.174;5.456;2022-08-20T10:13:08;1.80;;;1.08;;
42110;SDS011;27766;52.174;5.456;2022-08-20T10:15:39;5.35;;;1.52;;
42110;SDS011;27766;52.174;5.456;2022-08-20T10:18:07;7.85;;;1.55;;
42110;SDS011;27766;52.174;5.456;2022-08-20T10:20:38;5.50;;;1.23;;
42110;SDS011;27766;52.174;5.456;2022-08-20T10:23:09;7.47;;;1.50;;
42110;SDS011;27766;52.174;5.456;2022-08-20T10:25:36;2.60;;;1.02;;
42110;SDS011;27766;52.174;5.456;2022-08-20T10:28:03;3.83;;;1.45;;
42110;SDS011;27766;52.174;5.456;2022-08-20T10:30:32;3.53;;;1.20;;
42110;SDS011;27766;52.174;5.456;2022-08-20T10:32:59;10.35;;;1.50;;
42110;SDS011;27766;52.174;5.456;2022-08-20T10:35:27;6.88;;;1.58;;
42110;SDS011;27766;52.174;5.456;2022-08-20T10:37:56;8.10;;;1.38;;
42110;SDS011;27766;52.174;5.456;2022-08-20T10:40:23;2.97;;;1.45;;
42110;SDS011;27766;52.174;5.456;2022-08-20T10:42:53;1.80;;;0.90;;
42110;SDS011;27766;52.174;5.456;2022-08-20T10:45:22;3.70;;;1.27;;
42110;SDS011;27766;52.174;5.456;2022-08-20T10:50:27;3.97;;;1.45;;
42110;SDS011;27766;52.174;5.456;2022-08-20T10:52:56;6.07;;;2.20;;
42110;SDS011;27766;52.174;5.456;2022-08-20T10:55:23;6.18;;;1.90;;
42110;SDS011;27766;52.174;5.456;2022-08-20T10:57:51;3.55;;;1.27;;
42110;SDS011;27766;52.174;5.456;2022-08-20T11:00:19;3.80;;;1.73;;
42110;SDS011;27766;52.174;5.456;2022-08-20T11:02:46;3.50;;;1.77;;
42110;SDS011;27766;52.174;5.456;2022-08-20T11:05:13;4.18;;;1.88;;
42110;SDS011;27766;52.174;5.456;2022-08-20T11:07:42;6.63;;;2.33;;
42110;SDS011;27766;52.174;5.456;2022-08-20T11:10:31;4.45;;;2.03;;
42110;SDS011;27766;52.174;5.456;2022-08-20T11:13:01;7.88;;;1.80;;
42110;SDS011;27766;52.174;5.456;2022-08-20T11:15:30;3.28;;;1.30;;
42110;SDS011;27766;52.174;5.456;2022-08-20T11:17:59;4.57;;;1.83;;
42110;SDS011;27766;52.174;5.456;2022-08-20T11:20:26;4.78;;;2.10;;
42110;SDS011;27766;52.174;5.456;2022-08-20T11:22:53;3.60;;;1.63;;
42110;SDS011;27766;52.174;5.456;2022-08-20T11:25:22;5.22;;;1.80;;
42110;SDS011;27766;52.174;5.456;2022-08-20T11:27:51;6.15;;;1.70;;
42110;SDS011;27766;52.174;5.456;2022-08-20T11:30:23;6.43;;;1.33;;
42110;SDS011;27766;52.174;5.456;2022-08-20T11:35:26;3.10;;;1.30;;
42110;SDS011;27766;52.174;5.456;2022-08-20T11:38:15;5.18;;;1.55;;
42110;SDS011;27766;52.174;5.456;2022-08-20T11:40:44;4.13;;;1.40;;
42110;SDS011;27766;52.174;5.456;2022-08-20T11:43:17;2.13;;;1.40;;
42110;SDS011;27766;52.174;5.456;2022-08-20T11:45:45;7.00;;;2.13;;
42110;SDS011;27766;52.174;5.456;2022-08-20T11:48:15;3.25;;;1.75;;
42110;SDS011;27766;52.174;5.456;2022-08-20T11:50:44;4.72;;;1.55;;
42110;SDS011;27766;52.174;5.456;2022-08-20T11:53:12;9.70;;;1.77;;
42110;SDS011;27766;52.174;5.456;2022-08-20T11:55:40;3.67;;;1.75;;
42110;SDS011;27766;52.174;5.456;2022-08-20T11:58:08;5.43;;;1.70;;
42110;SDS011;27766;52.174;5.456;2022-08-20T12:00:36;3.92;;;1.60;;
42110;SDS011;27766;52.174;5.456;2022-08-20T12:03:06;3.80;;;1.30;;
42110;SDS011;27766;52.174;5.456;2022-08-20T12:05:36;11.25;;;3.05;;
42110;SDS011;27766;52.174;5.456;2022-08-20T12:08:05;5.28;;;1.58;;
42110;SDS011;27766;52.174;5.456;2022-08-20T12:10:32;3.20;;;1.20;;
42110;SDS011;27766;52.174;5.456;2022-08-20T12:12:59;6.78;;;1.80;;
42110;SDS011;27766;52.174;5.456;2022-08-20T12:15:31;7.70;;;1.95;;
42110;SDS011;27766;52.174;5.456;2022-08-20T12:17:59;3.53;;;1.65;;
42110;SDS011;27766;52.174;5.456;2022-08-20T12:20:26;4.68;;;2.05;;
42110;SDS011;27766;52.174;5.456;2022-08-20T12:22:55;15.77;;;1.88;;
42110;SDS011;27766;52.174;5.456;2022-08-20T12:25:26;3.08;;;1.65;;
42110;SDS011;27766;52.174;5.456;2022-08-20T12:27:55;2.72;;;1.30;;
42110;SDS011;27766;52.174;5.456;2022-08-20T12:30:22;3.17;;;1.58;;
42110;SDS011;27766;52.174;5.456;2022-08-20T12:32:49;3.50;;;1.23;;
42110;SDS011;27766;52.174;5.456;2022-08-20T12:35:17;4.57;;;2.10;;
42110;SDS011;27766;52.174;5.456;2022-08-20T12:37:45;14.38;;;1.67;;
42110;SDS011;27766;52.174;5.456;2022-08-20T12:40:14;6.07;;;2.03;;
42110;SDS011;27766;52.174;5.456;2022-08-20T12:42:58;2.50;;;1.10;;
42110;SDS011;27766;52.174;5.456;2022-08-20T12:45:28;5.78;;;1.98;;
42110;SDS011;27766;52.174;5.456;2022-08-20T12:48:03;4.20;;;1.75;;
42110;SDS011;27766;52.174;5.456;2022-08-20T12:50:33;4.38;;;1.83;;
42110;SDS011;27766;52.174;5.456;2022-08-20T12:53:02;3.30;;;1.55;;
42110;SDS011;27766;52.174;5.456;2022-08-20T12:55:30;9.68;;;2.13;;
42110;SDS011;27766;52.174;5.456;2022-08-20T12:57:58;2.55;;;1.27;;
42110;SDS011;27766;52.174;5.456;2022-08-20T13:00:29;3.85;;;1.30;;
42110;SDS011;27766;52.174;5.456;2022-08-20T13:02:59;5.60;;;1.65;;
42110;SDS011;27766;52.174;5.456;2022-08-20T13:05:28;5.05;;;2.30;;
42110;SDS011;27766;52.174;5.456;2022-08-20T13:07:58;8.65;;;2.08;;
42110;SDS011;27766;52.174;5.456;2022-08-20T13:10:27;6.22;;;1.83;;
42110;SDS011;27766;52.174;5.456;2022-08-20T13:12:59;3.80;;;2.17;;
42110;SDS011;27766;52.174;5.456;2022-08-20T13:15:30;5.88;;;2.17;;
42110;SDS011;27766;52.174;5.456;2022-08-20T13:17:58;2.65;;;1.38;;
42110;SDS011;27766;52.174;5.456;2022-08-20T13:20:27;5.53;;;2.28;;
42110;SDS011;27766;52.174;5.456;2022-08-20T13:23:01;6.40;;;1.97;;
42110;SDS011;27766;52.174;5.456;2022-08-20T13:25:30;10.40;;;2.03;;
42110;SDS011;27766;52.174;5.456;2022-08-20T13:27:58;3.53;;;1.50;;
42110;SDS011;27766;52.174;5.456;2022-08-20T13:30:27;4.53;;;1.98;;
42110;SDS011;27766;52.174;5.456;2022-08-20T13:32:56;11.48;;;2.70;;
42110;SDS011;27766;52.174;5.456;2022-08-20T13:35:23;5.45;;;2.00;;
42110;SDS011;27766;52.174;5.456;2022-08-20T13:37:52;4.60;;;1.35;;
42110;SDS011;27766;52.174;5.456;2022-08-20T13:40:20;3.80;;;1.90;;
42110;SDS011;27766;52.174;5.456;2022-08-20T13:42:48;5.93;;;2.47;;
42110;SDS011;27766;52.174;5.456;2022-08-20T13:45:15;4.95;;;1.83;;
42110;SDS011;27766;52.174;5.456;2022-08-20T13:47:42;6.68;;;2.08;;
42110;SDS011;27766;52.174;5.456;2022-08-20T13:50:12;7.63;;;2.38;;
42110;SDS011;27766;52.174;5.456;2022-08-20T13:52:42;7.38;;;2.55;;
42110;SDS011;27766;52.174;5.456;2022-08-20T13:55:12;4.53;;;2.15;;
42110;SDS011;27766;52.174;5.456;2022-08-20T13:57:42;6.68;;;1.73;;
42110;SDS011;27766;52.174;5.456;2022-08-20T14:00:15;5.43;;;2.05;;
42110;SDS011;27766;52.174;5.456;2022-08-20T14:02:44;6.47;;;2.60;;
42110;SDS011;27766;52.174;5.456;2022-08-20T14:05:12;5.18;;;2.67;;
42110;SDS011;27766;52.174;5.456;2022-08-20T14:07:44;5.03;;;2.28;;
42110;SDS011;27766;52.174;5.456;2022-08-20T14:10:13;7.38;;;2.15;;
42110;SDS011;27766;52.174;5.456;2022-08-20T14:12:45;8.52;;;2.60;;
42110;SDS011;27766;52.174;5.456;2022-08-20T14:15:12;4.90;;;2.40;;
42110;SDS011;27766;52.174;5.456;2022-08-20T14:17:41;6.38;;;2.42;;
42110;SDS011;27766;52.174;5.456;2022-08-20T14:20:16;7.85;;;1.58;;
42110;SDS011;27766;52.174;5.456;2022-08-20T14:22:45;8.20;;;2.33;;
42110;SDS011;27766;52.174;5.456;2022-08-20T14:25:13;4.70;;;2.47;;
42110;SDS011;27766;52.174;5.456;2022-08-20T14:27:42;4.70;;;1.88;;
42110;SDS011;27766;52.174;5.456;2022-08-20T14:30:10;3.40;;;1.88;;
42110;SDS011;27766;52.174;5.456;2022-08-20T14:32:40;5.75;;;2.08;;
42110;SDS011;27766;52.174;5.456;2022-08-20T14:35:07;8.73;;;1.90;;
42110;SDS011;27766;52.174;5.456;2022-08-20T14:37:38;3.17;;;1.50;;
42110;SDS011;27766;52.174;5.456;2022-08-20T14:40:09;4.85;;;1.75;;
42110;SDS011;27766;52.174;5.456;2022-08-20T14:42:38;4.32;;;1.65;;
42110;SDS011;27766;52.174;5.456;2022-08-20T14:45:10;5.88;;;2.08;;
42110;SDS011;27766;52.174;5.456;2022-08-20T14:47:39;5.85;;;1.77;;
42110;SDS011;27766;52.174;5.456;2022-08-20T14:50:12;4.88;;;2.05;;
42110;SDS011;27766;52.174;5.456;2022-08-20T14:52:45;5.78;;;1.92;;
42110;SDS011;27766;52.174;5.456;2022-08-20T14:55:22;4.28;;;1.70;;
42110;SDS011;27766;52.174;5.456;2022-08-20T14:57:52;5.70;;;2.30;;
42110;SDS011;27766;52.174;5.456;2022-08-20T15:00:23;2.03;;;1.40;;
42110;SDS011;27766;52.174;5.456;2022-08-20T15:02:52;8.63;;;2.13;;
42110;SDS011;27766;52.174;5.456;2022-08-20T15:05:22;5.20;;;1.60;;
42110;SDS011;27766;52.174;5.456;2022-08-20T15:07:50;6.25;;;2.15;;
42110;SDS011;27766;52.174;5.456;2022-08-20T15:10:24;13.38;;;2.22;;
42110;SDS011;27766;52.174;5.456;2022-08-20T15:12:56;5.18;;;2.08;;
42110;SDS011;27766;52.174;5.456;2022-08-20T15:15:25;3.83;;;2.13;;
42110;SDS011;27766;52.174;5.456;2022-08-20T15:17:54;9.45;;;2.35;;
42110;SDS011;27766;52.174;5.456;2022-08-20T15:20:24;4.53;;;2.33;;
42110;SDS011;27766;52.174;5.456;2022-08-20T15:22:54;2.72;;;1.55;;